Time;durP1;ratioP1;P1;durP2;ratioP2;P2;SDS_P1;SDS_P2;PMS_P1;PMS_P2;Temp;Humidity;BMP_temperature;BMP_pressure;BME280_temperature;BME280_humidity;BME280_pressure;Samples;Min_cycle;Max_cycle;Signal;HPM_P1;HPM_P2
2022/02/12 00:00:09;;;;;;;21.95;11.10;;;2.00;99.90;;;;;;5026934;28;20076;-43
2022/02/12 00:02:35;;;;;;;21.52;10.25;;;2.00;99.90;;;;;;5027128;28;20025;-43
2022/02/12 00:05:00;;;;;;;18.38;10.70;;;1.90;99.90;;;;;;5027724;28;20045;-43
2022/02/12 00:07:26;;;;;;;18.75;11.05;;;1.90;99.90;;;;;;5024352;28;20029;-43
2022/02/12 00:09:53;;;;;;;19.92;11.07;;;1.90;99.90;;;;;;5026423;28;20036;-42
2022/02/12 00:12:18;;;;;;;17.67;10.25;;;1.90;99.90;;;;;;5027604;28;20029;-43
2022/02/12 00:14:44;;;;;;;17.40;9.90;;;1.80;99.90;;;;;;5027848;28;20467;-43
2022/02/12 00:17:09;;;;;;;18.77;9.90;;;1.90;99.90;;;;;;5026734;28;20085;-43
2022/02/12 00:19:35;;;;;;;17.58;10.73;;;1.80;99.90;;;;;;5027159;28;20444;-43
2022/02/12 00:22:01;;;;;;;16.75;10.07;;;1.80;99.90;;;;;;5027239;28;20033;-43
2022/02/12 00:24:26;;;;;;;16.60;9.93;;;1.80;99.90;;;;;;5026486;28;20056;-43
2022/02/12 00:26:52;;;;;;;19.50;9.88;;;1.80;99.90;;;;;;5027703;28;20025;-43
2022/02/12 00:29:17;;;;;;;20.95;10.70;;;1.70;99.90;;;;;;5026908;28;20029;-43
2022/02/12 00:31:43;;;;;;;18.17;9.95;;;1.70;99.90;;;;;;5026846;28;20393;-44
2022/02/12 00:34:08;;;;;;;14.20;9.13;;;1.70;99.90;;;;;;5027275;28;20025;-43
2022/02/12 00:36:34;;;;;;;19.17;9.43;;;1.70;99.90;;;;;;5026870;28;20029;-42
2022/02/12 00:38:59;;;;;;;16.90;9.48;;;1.70;99.90;;;;;;5027504;28;20064;-43
2022/02/12 00:41:25;;;;;;;16.83;9.20;;;1.60;99.90;;;;;;5026653;28;20026;-43
2022/02/12 00:43:50;;;;;;;16.70;9.00;;;1.60;99.90;;;;;;5027636;28;20029;-42
2022/02/12 00:46:16;;;;;;;16.30;8.95;;;1.60;99.90;;;;;;5025374;28;20030;-44
2022/02/12 00:48:41;;;;;;;17.20;8.80;;;1.60;99.90;;;;;;5027522;28;20022;-44
2022/02/12 00:51:07;;;;;;;14.93;8.65;;;1.60;99.90;;;;;;5027030;28;20528;-44
2022/02/12 00:53:32;;;;;;;15.82;8.43;;;1.50;99.90;;;;;;5025907;28;20029;-44
2022/02/12 00:55:58;;;;;;;15.65;8.93;;;1.50;99.90;;;;;;5026529;28;20029;-44
2022/02/12 00:58:23;;;;;;;15.63;9.00;;;1.50;99.90;;;;;;5026730;28;20036;-43
2022/02/12 01:00:49;;;;;;;12.02;7.03;;;1.50;99.90;;;;;;5025874;28;20112;-43
2022/02/12 01:03:14;;;;;;;17.67;7.57;;;1.50;99.90;;;;;;5026227;28;20041;-42
2022/02/12 01:05:40;;;;;;;16.65;7.97;;;1.50;99.90;;;;;;5026732;28;20045;-43
2022/02/12 01:08:06;;;;;;;17.60;8.30;;;1.40;99.90;;;;;;5026093;28;20037;-44
2022/02/12 01:10:33;;;;;;;15.77;7.78;;;1.40;99.90;;;;;;5025633;28;20033;-43
2022/02/12 01:13:00;;;;;;;16.52;7.63;;;1.40;99.90;;;;;;5025623;28;20029;-43
2022/02/12 01:15:25;;;;;;;14.77;7.90;;;1.40;99.90;;;;;;5026734;28;20180;-42
2022/02/12 01:17:51;;;;;;;12.85;7.00;;;1.40;99.90;;;;;;5026091;28;20575;-43
2022/02/12 01:20:17;;;;;;;14.02;6.93;;;1.30;99.90;;;;;;5026054;28;20032;-42
2022/02/12 01:22:42;;;;;;;12.77;7.03;;;1.30;99.90;;;;;;5026214;28;20033;-43
2022/02/12 01:25:09;;;;;;;13.45;7.45;;;1.30;99.90;;;;;;5026271;28;20033;-44
2022/02/12 01:27:37;;;;;;;14.25;7.38;;;1.30;99.90;;;;;;5025799;28;20862;-43
2022/02/12 01:30:04;;;;;;;16.38;7.22;;;1.30;99.90;;;;;;5026685;28;20112;-43
2022/02/12 01:32:30;;;;;;;13.23;7.55;;;1.30;99.90;;;;;;5025131;28;20488;-43
2022/02/12 01:34:56;;;;;;;13.23;7.70;;;1.20;99.90;;;;;;5025945;28;20036;-43
2022/02/12 01:37:23;;;;;;;12.88;6.80;;;1.20;99.90;;;;;;5025428;28;20120;-43
2022/02/12 01:39:49;;;;;;;15.02;6.75;;;1.20;99.90;;;;;;5026260;28;20029;-43
2022/02/12 01:42:15;;;;;;;16.70;7.15;;;1.20;99.90;;;;;;5024668;28;20030;-43
2022/02/12 01:44:41;;;;;;;12.23;6.88;;;1.10;99.90;;;;;;5026117;28;20032;-44
2022/02/12 01:47:08;;;;;;;12.88;6.72;;;1.10;99.90;;;;;;5025690;28;20034;-44
2022/02/12 01:49:34;;;;;;;14.55;7.90;;;1.10;99.90;;;;;;5025037;28;20037;-43
2022/02/12 01:52:01;;;;;;;13.75;7.82;;;1.10;99.90;;;;;;5026203;28;20044;-43
2022/02/12 01:54:28;;;;;;;13.95;7.30;;;1.10;99.90;;;;;;5025283;28;20034;-44
2022/02/12 01:56:56;;;;;;;17.63;8.13;;;1.10;99.90;;;;;;5025666;28;20104;-43
2022/02/12 01:59:23;;;;;;;14.57;7.47;;;1.10;99.90;;;;;;5025011;28;20029;-43
2022/02/12 02:01:48;;;;;;;18.02;8.18;;;1.10;99.90;;;;;;5025865;28;20045;-44
2022/02/12 02:04:15;;;;;;;14.55;8.35;;;1.00;99.90;;;;;;5023925;28;20058;-43
2022/02/12 02:06:42;;;;;;;18.10;8.18;;;1.00;99.90;;;;;;5025898;28;20034;-43
2022/02/12 02:09:09;;;;;;;16.75;8.57;;;1.00;99.90;;;;;;5024659;28;20477;-43
2022/02/12 02:11:35;;;;;;;16.13;8.15;;;1.00;99.90;;;;;;5025144;28;20052;-43
2022/02/12 02:14:01;;;;;;;18.55;8.18;;;1.00;99.90;;;;;;5025539;28;20103;-43
2022/02/12 02:16:26;;;;;;;16.23;7.72;;;0.90;99.90;;;;;;5024355;28;20029;-43
2022/02/12 02:18:52;;;;;;;11.38;7.05;;;0.90;99.90;;;;;;5025521;28;20017;-43
2022/02/12 02:21:18;;;;;;;12.52;7.43;;;0.90;99.90;;;;;;5025387;28;20029;-42
2022/02/12 02:23:43;;;;;;;13.25;7.30;;;0.90;99.90;;;;;;5023856;28;20075;-43
2022/02/12 02:26:09;;;;;;;13.25;7.53;;;0.90;99.90;;;;;;5025144;28;20036;-42
2022/02/12 02:28:35;;;;;;;14.93;7.53;;;0.90;99.90;;;;;;5024941;28;20067;-43
2022/02/12 02:31:01;;;;;;;13.45;6.63;;;0.90;99.90;;;;;;5025219;28;20098;-43
2022/02/12 02:33:27;;;;;;;12.70;7.68;;;0.90;99.90;;;;;;5024527;28;20091;-43
2022/02/12 02:35:52;;;;;;;12.10;6.88;;;0.80;99.90;;;;;;5025514;28;20029;-42
2022/02/12 02:38:19;;;;;;;10.57;6.18;;;0.80;99.90;;;;;;5024356;28;20389;-42
2022/02/12 02:40:45;;;;;;;15.75;7.28;;;0.80;99.90;;;;;;5024895;28;20043;-43
2022/02/12 02:43:11;;;;;;;11.30;6.45;;;0.80;99.90;;;;;;5025106;28;20037;-43
2022/02/12 02:45:37;;;;;;;13.10;6.72;;;0.70;99.90;;;;;;5023960;28;20029;-44
2022/02/12 02:48:04;;;;;;;12.80;6.43;;;0.70;99.90;;;;;;5025454;28;20168;-43
2022/02/12 02:56:02;;;;;;;13.55;6.40;;;0.60;99.90;;;;;;5028383;28;20112;-42
2022/02/12 02:58:34;;;;;;;13.90;5.90;;;0.60;99.90;;;;;;5024107;28;20078;-43
2022/02/12 03:01:09;;;;;;;9.55;5.60;;;0.60;99.90;;;;;;5024811;28;20112;-42
2022/02/12 03:03:35;;;;;;;12.90;5.90;;;0.60;99.90;;;;;;5005921;28;20033;-43
2022/02/12 03:06:01;;;;;;;9.38;5.97;;;0.50;99.90;;;;;;5019290;28;20018;-43
2022/02/12 03:08:28;;;;;;;11.80;5.53;;;0.60;99.90;;;;;;5024836;28;20040;-44
2022/02/12 03:10:54;;;;;;;13.40;6.53;;;0.50;99.90;;;;;;5024598;28;20370;-43
2022/02/12 03:13:20;;;;;;;14.13;5.90;;;0.50;99.90;;;;;;5023551;28;20036;-42
2022/02/12 03:15:46;;;;;;;12.73;5.95;;;0.50;99.90;;;;;;5025036;28;20460;-43
2022/02/12 03:18:12;;;;;;;12.77;6.30;;;0.50;99.90;;;;;;5024657;28;20041;-42
2022/02/12 03:20:38;;;;;;;11.90;6.18;;;0.50;99.90;;;;;;5023712;28;20037;-43
2022/02/12 03:23:06;;;;;;;10.60;5.32;;;0.50;99.90;;;;;;5024796;28;20133;-46
2022/02/12 03:25:32;;;;;;;10.20;5.97;;;0.50;99.90;;;;;;5023854;28;20036;-43
2022/02/12 03:28:02;;;;;;;12.98;5.85;;;0.50;99.90;;;;;;5024214;28;20756;-44
2022/02/12 03:30:32;;;;;;;11.95;6.13;;;0.50;99.90;;;;;;5023913;28;20762;-45
2022/02/12 03:32:58;;;;;;;11.75;5.38;;;0.40;99.90;;;;;;5024995;28;20547;-44
2022/02/12 03:35:23;;;;;;;10.45;5.70;;;0.40;99.90;;;;;;5025605;28;20029;-42
2022/02/12 03:37:50;;;;;;;12.25;5.95;;;0.40;99.90;;;;;;5028527;28;20412;-43
2022/02/12 03:40:16;;;;;;;13.70;5.97;;;0.40;99.90;;;;;;5028286;28;20124;-42
2022/02/12 03:42:41;;;;;;;12.55;5.32;;;0.40;99.90;;;;;;5027401;28;20026;-43
2022/02/12 03:45:07;;;;;;;14.27;5.60;;;0.40;99.90;;;;;;5029074;28;20029;-45
2022/02/12 03:47:33;;;;;;;10.13;5.35;;;0.40;99.90;;;;;;5026995;28;20429;-42
2022/02/12 03:49:58;;;;;;;10.05;5.82;;;0.40;99.90;;;;;;5028221;28;20393;-44
2022/02/12 03:52:24;;;;;;;10.23;5.50;;;0.40;99.90;;;;;;5027557;28;20041;-43
2022/02/12 03:54:49;;;;;;;10.40;5.05;;;0.40;99.90;;;;;;5027620;28;20807;-44
2022/02/12 03:57:15;;;;;;;12.65;5.68;;;0.50;99.90;;;;;;5026902;28;20036;-43
2022/02/12 03:59:40;;;;;;;8.10;5.03;;;0.40;99.90;;;;;;5027791;28;20036;-44
2022/02/12 04:02:06;;;;;;;11.00;4.80;;;0.40;99.90;;;;;;5027290;28;20592;-44
2022/02/12 04:04:32;;;;;;;8.70;4.95;;;0.40;99.90;;;;;;5026884;28;20056;-43
2022/02/12 04:06:58;;;;;;;13.95;5.45;;;0.40;99.90;;;;;;5028108;28;20022;-42
2022/02/12 04:09:24;;;;;;;11.13;5.03;;;0.40;99.90;;;;;;5015974;28;20049;-43
2022/02/12 04:11:49;;;;;;;7.38;4.68;;;0.40;99.90;;;;;;5027053;28;20875;-44
2022/02/12 04:14:15;;;;;;;9.23;4.15;;;0.40;99.90;;;;;;5026964;28;20025;-43
2022/02/12 04:16:41;;;;;;;8.68;4.50;;;0.40;99.90;;;;;;5026955;28;20033;-43
2022/02/12 04:19:06;;;;;;;8.95;4.80;;;0.40;99.90;;;;;;5027534;28;20026;-43
2022/02/12 04:21:31;;;;;;;8.15;4.10;;;0.40;99.90;;;;;;5026792;28;20120;-43
2022/02/12 04:23:57;;;;;;;7.68;4.28;;;0.40;99.90;;;;;;5026488;28;20033;-43
2022/02/12 04:26:22;;;;;;;6.50;4.35;;;0.40;99.90;;;;;;5026870;28;20109;-42
2022/02/12 04:28:49;;;;;;;9.23;4.18;;;0.40;99.90;;;;;;5026921;28;20022;-42
2022/02/12 04:31:14;;;;;;;9.38;4.93;;;0.40;99.90;;;;;;5026243;28;20068;-44
2022/02/12 04:33:40;;;;;;;9.10;4.57;;;0.40;99.90;;;;;;5027069;28;20473;-44
2022/02/12 04:36:05;;;;;;;11.50;4.55;;;0.30;99.90;;;;;;5027377;28;20140;-43
2022/02/12 04:38:31;;;;;;;8.95;4.10;;;0.30;99.90;;;;;;5025880;28;20025;-43
2022/02/12 04:40:56;;;;;;;7.65;4.32;;;0.30;99.90;;;;;;5027977;28;20036;-43
2022/02/12 04:43:22;;;;;;;7.70;4.18;;;0.30;99.90;;;;;;5026607;28;20113;-43
2022/02/12 04:45:47;;;;;;;6.63;4.50;;;0.30;99.90;;;;;;5025901;28;20021;-44
2022/02/12 04:48:13;;;;;;;9.52;4.30;;;0.30;99.90;;;;;;5027168;28;20631;-42
2022/02/12 04:50:38;;;;;;;12.25;4.78;;;0.20;99.90;;;;;;5026839;28;20025;-44
2022/02/12 04:53:04;;;;;;;14.15;4.50;;;0.20;99.90;;;;;;5026397;28;20063;-43
2022/02/12 04:55:30;;;;;;;9.93;4.10;;;0.20;99.90;;;;;;5026477;28;20049;-43
2022/02/12 04:57:55;;;;;;;8.95;4.25;;;0.20;99.90;;;;;;5026334;28;20480;-42
2022/02/12 05:00:21;;;;;;;13.32;4.57;;;0.20;99.90;;;;;;5025801;28;20075;-43
2022/02/12 05:02:46;;;;;;;5.75;4.28;;;0.20;99.90;;;;;;5026972;28;20021;-44
2022/02/12 05:05:12;;;;;;;9.75;4.60;;;0.10;99.90;;;;;;5025268;28;20061;-43
2022/02/12 05:07:40;;;;;;;7.43;4.45;;;0.10;99.90;;;;;;5006705;28;20210;-44
2022/02/12 05:10:07;;;;;;;9.05;4.70;;;0.10;99.90;;;;;;5021253;28;20033;-43
2022/02/12 05:12:33;;;;;;;9.35;4.85;;;0.10;99.90;;;;;;5025721;28;20037;-44
2022/02/12 05:14:58;;;;;;;8.55;4.78;;;0.00;99.90;;;;;;5026062;28;20528;-43
2022/02/12 05:17:24;;;;;;;8.57;4.95;;;0.00;99.90;;;;;;5026166;28;20411;-43
2022/02/12 05:19:49;;;;;;;7.22;4.10;;;0.00;99.90;;;;;;5025740;28;20017;-43
2022/02/12 05:22:15;;;;;;;10.07;4.40;;;0.00;99.90;;;;;;5025707;28;20548;-44
2022/02/12 05:24:42;;;;;;;9.73;5.30;;;0.00;99.90;;;;;;5026580;28;20025;-44
2022/02/12 05:27:09;;;;;;;8.85;4.55;;;0.00;99.90;;;;;;5025681;28;20119;-40
2022/02/12 05:29:35;;;;;;;8.63;4.65;;;-0.10;99.90;;;;;;5026040;28;20053;-43
2022/02/12 05:32:00;;;;;;;8.80;4.20;;;-0.10;99.90;;;;;;5026271;28;20048;-43
2022/02/12 05:34:26;;;;;;;7.47;4.13;;;-0.10;99.90;;;;;;5025008;28;20030;-43
2022/02/12 05:36:51;;;;;;;7.18;4.63;;;-0.10;99.90;;;;;;5030528;28;20022;-47
2022/02/12 05:39:17;;;;;;;7.97;4.03;;;-0.10;99.90;;;;;;5025722;28;20026;-44
2022/02/12 05:41:42;;;;;;;10.35;4.63;;;-0.10;99.90;;;;;;5024848;28;20437;-43
2022/02/12 05:44:08;;;;;;;11.15;4.38;;;-0.20;99.90;;;;;;5026182;28;20039;-40
2022/02/12 05:46:34;;;;;;;8.98;5.57;;;-0.10;99.90;;;;;;5025211;28;20040;-43
2022/02/12 05:49:00;;;;;;;6.55;3.83;;;-0.10;99.90;;;;;;5025621;28;20566;-43
2022/02/12 05:51:30;;;;;;;8.70;4.13;;;-0.20;99.90;;;;;;5024877;28;20072;-43
2022/02/12 05:54:00;;;;;;;9.38;5.25;;;-0.20;99.90;;;;;;5026192;28;20112;-43
2022/02/12 05:56:26;;;;;;;10.15;5.00;;;-0.20;99.90;;;;;;5024416;28;20037;-42
2022/02/12 05:58:52;;;;;;;9.05;5.10;;;-0.20;99.90;;;;;;5025980;28;20029;-42
2022/02/12 06:01:17;;;;;;;7.78;4.93;;;-0.20;99.90;;;;;;5024590;28;20396;-44
2022/02/12 06:03:43;;;;;;;10.77;5.20;;;-0.20;99.90;;;;;;5025448;28;20065;-42
2022/02/12 06:06:08;;;;;;;12.52;5.10;;;-0.20;99.90;;;;;;5025692;28;20803;-43
2022/02/12 06:08:34;;;;;;;10.25;5.30;;;-0.20;99.90;;;;;;5024518;28;20465;-42
2022/02/12 06:11:01;;;;;;;7.63;4.43;;;-0.20;99.90;;;;;;5025394;28;20039;-42
2022/02/12 06:13:27;;;;;;;7.68;4.78;;;-0.20;99.90;;;;;;5025375;28;20399;-43
2022/02/12 06:15:54;;;;;;;8.43;4.10;;;-0.20;99.90;;;;;;5024703;28;20069;-42
2022/02/12 06:18:19;;;;;;;10.07;4.30;;;-0.30;99.90;;;;;;5024721;28;20456;-44
2022/02/12 06:20:45;;;;;;;9.23;4.63;;;-0.30;99.90;;;;;;5025681;28;20033;-44
2022/02/12 06:23:10;;;;;;;7.28;4.45;;;-0.30;99.90;;;;;;5023925;28;20398;-43
2022/02/12 06:25:36;;;;;;;11.05;5.30;;;-0.30;99.90;;;;;;5025149;28;20033;-43
2022/02/12 06:28:01;;;;;;;8.13;4.65;;;-0.30;99.90;;;;;;5025120;28;20021;-44
2022/02/12 06:30:27;;;;;;;15.02;4.80;;;-0.30;99.90;;;;;;5024212;28;20029;-44
2022/02/12 06:32:52;;;;;;;13.15;5.15;;;-0.30;99.90;;;;;;5025111;28;20029;-42
2022/02/12 06:35:19;;;;;;;6.88;4.40;;;-0.30;99.90;;;;;;5025138;28;20013;-43
2022/02/12 06:37:44;;;;;;;7.53;4.80;;;-0.30;99.90;;;;;;5024574;28;20033;-43
2022/02/12 06:40:10;;;;;;;8.88;4.50;;;-0.30;99.90;;;;;;5024464;28;20483;-43
2022/02/12 06:42:36;;;;;;;8.95;4.50;;;-0.40;99.90;;;;;;5024545;28;20059;-43
2022/02/12 06:45:02;;;;;;;8.32;4.65;;;-0.30;99.90;;;;;;5024510;28;20453;-43
2022/02/12 06:47:28;;;;;;;10.15;5.47;;;-0.40;99.90;;;;;;5024333;28;20022;-43
2022/02/12 06:49:53;;;;;;;8.73;4.10;;;-0.40;99.90;;;;;;5025050;28;20458;-43
2022/02/12 06:52:19;;;;;;;9.10;4.45;;;-0.40;99.90;;;;;;5023633;28;20087;-44
2022/02/12 06:54:44;;;;;;;12.00;4.85;;;-0.40;99.90;;;;;;5025239;28;20026;-43
2022/02/12 06:57:10;;;;;;;8.27;4.85;;;-0.40;99.90;;;;;;5024957;28;20061;-43
2022/02/12 06:59:36;;;;;;;8.70;4.57;;;-0.40;99.90;;;;;;5025263;28;20022;-42
2022/02/12 07:02:02;;;;;;;9.30;4.80;;;-0.40;99.90;;;;;;5025815;28;20033;-44
2022/02/12 07:04:30;;;;;;;10.18;4.72;;;-0.40;99.90;;;;;;5023370;28;20050;-42
2022/02/12 07:06:56;;;;;;;8.77;4.30;;;-0.40;99.90;;;;;;5025434;28;20374;-42
2022/02/12 07:09:22;;;;;;;7.35;4.50;;;-0.40;99.90;;;;;;5025713;28;20030;-44
2022/02/12 07:11:48;;;;;;;8.70;4.45;;;-0.40;99.90;;;;;;5029213;28;20029;-43
2022/02/12 07:14:13;;;;;;;10.07;4.53;;;-0.40;99.90;;;;;;5028800;28;20029;-43
2022/02/12 07:16:39;;;;;;;10.15;4.80;;;-0.40;99.90;;;;;;5029015;28;20033;-43
2022/02/12 07:19:04;;;;;;;6.35;4.15;;;-0.40;99.90;;;;;;5028574;28;20014;-42
2022/02/12 07:21:31;;;;;;;10.07;4.05;;;-0.40;99.90;;;;;;5028124;28;20358;-42
2022/02/12 07:23:57;;;;;;;9.40;4.50;;;-0.40;99.90;;;;;;5028344;28;20383;-44
2022/02/12 07:26:22;;;;;;;7.35;4.20;;;-0.40;99.90;;;;;;5027646;28;20022;-44
2022/02/12 07:28:48;;;;;;;6.82;3.60;;;-0.40;99.90;;;;;;5028098;28;20718;-43
2022/02/12 07:31:16;;;;;;;11.00;4.70;;;-0.40;99.90;;;;;;5028039;28;20084;-43
2022/02/12 07:33:42;;;;;;;8.52;4.20;;;-0.30;99.90;;;;;;5028178;28;20029;-45
2022/02/12 07:36:08;;;;;;;8.70;4.50;;;-0.30;99.90;;;;;;5028672;28;20116;-43
2022/02/12 07:38:34;;;;;;;6.78;4.13;;;-0.30;99.90;;;;;;5028699;28;20053;-43
2022/02/12 07:41:00;;;;;;;7.07;3.92;;;-0.20;99.90;;;;;;5024064;28;20485;-42
2022/02/12 07:43:26;;;;;;;6.55;3.42;;;-0.20;99.90;;;;;;5028273;28;20045;-43
2022/02/12 07:45:51;;;;;;;5.82;3.70;;;-0.20;99.90;;;;;;5028283;28;20473;-44
2022/02/12 07:48:17;;;;;;;6.78;4.53;;;-0.20;99.90;;;;;;5027584;28;20025;-43
2022/02/12 07:50:42;;;;;;;6.43;3.78;;;-0.10;99.90;;;;;;5027994;28;20366;-43
2022/02/12 07:53:09;;;;;;;10.02;3.92;;;0.00;99.90;;;;;;5028093;28;20033;-44
2022/02/12 07:55:35;;;;;;;6.67;3.60;;;0.00;99.90;;;;;;5026906;28;20025;-43
2022/02/12 07:58:00;;;;;;;6.82;3.55;;;0.10;99.90;;;;;;5028230;28;20021;-44
2022/02/12 08:00:26;;;;;;;8.10;3.80;;;0.10;99.90;;;;;;5027714;28;20017;-43
2022/02/12 08:02:54;;;;;;;8.68;4.07;;;0.10;99.90;;;;;;5027325;28;20787;-43
2022/02/12 08:05:20;;;;;;;9.95;4.32;;;0.20;99.90;;;;;;5026725;28;20058;-42
2022/02/12 08:07:45;;;;;;;10.10;4.22;;;0.20;99.90;;;;;;5027531;28;20028;-43
2022/02/12 08:12:57;;;;;;;7.75;3.95;;;0.30;99.90;;;;;;5025286;28;20061;-43
2022/02/12 08:15:23;;;;;;;13.88;4.82;;;0.30;99.90;;;;;;5023350;28;20022;-42
2022/02/12 08:17:49;;;;;;;9.57;4.93;;;0.40;99.90;;;;;;5026304;28;20037;-44
2022/02/12 08:20:15;;;;;;;12.65;6.00;;;0.50;99.90;;;;;;5023898;28;20036;-43
2022/02/12 08:22:40;;;;;;;11.80;5.43;;;0.60;99.90;;;;;;5017613;28;20025;-44
2022/02/12 08:25:06;;;;;;;9.68;5.47;;;0.60;99.90;;;;;;5025381;28;20041;-44
2022/02/12 08:27:33;;;;;;;11.63;5.55;;;0.60;99.90;;;;;;5020587;28;20079;-44
2022/02/12 08:29:58;;;;;;;10.18;4.68;;;0.70;99.90;;;;;;5023852;28;20071;-42
2022/02/12 08:32:24;;;;;;;11.73;5.47;;;0.70;99.90;;;;;;5023824;28;20037;-44
2022/02/12 08:34:53;;;;;;;7.90;4.95;;;0.80;99.90;;;;;;5024561;28;20052;-42
2022/02/12 08:37:19;;;;;;;11.82;4.60;;;0.80;99.90;;;;;;5024347;28;20044;-42
2022/02/12 08:39:45;;;;;;;10.05;4.85;;;0.80;99.90;;;;;;5023425;28;20029;-43
2022/02/12 08:42:10;;;;;;;9.10;4.43;;;0.90;99.90;;;;;;5026221;28;20029;-43
2022/02/12 08:44:39;;;;;;;7.72;4.60;;;0.90;99.90;;;;;;5023441;28;20728;-43
2022/02/12 08:47:05;;;;;;;7.07;4.18;;;1.00;99.90;;;;;;5022877;28;20084;-44
2022/02/12 08:49:31;;;;;;;8.68;3.72;;;1.00;99.90;;;;;;5024256;28;20509;-43
2022/02/12 08:51:57;;;;;;;9.60;4.25;;;1.00;99.90;;;;;;5025232;28;20033;-44
2022/02/12 08:54:23;;;;;;;4.80;3.50;;;1.10;99.90;;;;;;5017861;28;20032;-43
2022/02/12 08:56:48;;;;;;;11.50;4.53;;;1.10;99.90;;;;;;5026118;28;20049;-43
2022/02/12 08:59:14;;;;;;;9.15;4.22;;;1.10;99.90;;;;;;5018725;28;20061;-44
2022/02/12 09:01:41;;;;;;;9.82;4.70;;;1.20;99.90;;;;;;5026004;28;20536;-42
2022/02/12 09:04:09;;;;;;;13.63;5.68;;;1.20;99.90;;;;;;5020574;28;20144;-42
2022/02/12 09:06:35;;;;;;;10.52;5.25;;;1.30;99.90;;;;;;5024980;28;20133;-43
2022/02/12 09:09:02;;;;;;;9.45;5.38;;;1.30;99.90;;;;;;5022534;28;20029;-43
2022/02/12 09:11:29;;;;;;;8.43;4.47;;;1.30;99.90;;;;;;5024777;28;20072;-43
2022/02/12 09:13:55;;;;;;;14.18;4.70;;;1.30;99.90;;;;;;5023582;28;20034;-43
2022/02/12 09:16:23;;;;;;;10.80;4.55;;;1.40;99.90;;;;;;5025205;28;20061;-43
2022/02/12 09:18:52;;;;;;;13.77;4.70;;;1.50;99.90;;;;;;5020157;28;20464;-43
2022/02/12 09:21:18;;;;;;;6.88;3.97;;;1.50;99.90;;;;;;5025499;28;20040;-42
2022/02/12 09:23:43;;;;;;;7.93;3.97;;;1.50;99.90;;;;;;5026520;28;20040;-42
2022/02/12 09:26:09;;;;;;;9.20;4.68;;;1.60;99.90;;;;;;5017268;28;20038;-43
2022/02/12 09:28:34;;;;;;;9.13;4.63;;;1.60;99.90;;;;;;5025391;28;20076;-44
2022/02/12 09:31:00;;;;;;;8.70;4.60;;;1.70;99.90;;;;;;5019620;28;20028;-43
2022/02/12 09:33:25;;;;;;;9.05;4.65;;;1.80;99.90;;;;;;5023794;28;20799;-42
2022/02/12 09:35:56;;;;;;;5.35;3.88;;;1.90;99.90;;;;;;5020195;28;20137;-43
2022/02/12 09:38:23;;;;;;;9.00;3.95;;;1.90;99.90;;;;;;5024558;28;20473;-43
2022/02/12 09:40:50;;;;;;;12.13;4.35;;;2.00;99.90;;;;;;5021394;28;20032;-43
2022/02/12 09:43:19;;;;;;;11.52;4.75;;;2.00;99.90;;;;;;5024790;28;20021;-43
2022/02/12 09:45:58;;;;;;;9.88;4.40;;;2.10;99.90;;;;;;5023062;28;20428;-43
2022/02/12 09:48:26;;;;;;;13.13;3.60;;;2.10;99.90;;;;;;5020302;28;20137;-43
2022/02/12 09:50:52;;;;;;;6.00;3.30;;;2.20;99.90;;;;;;5022897;28;20033;-42
2022/02/12 09:53:18;;;;;;;8.10;3.60;;;2.20;99.90;;;;;;5024587;28;20113;-44
2022/02/12 09:55:43;;;;;;;9.65;3.88;;;2.30;99.90;;;;;;5018217;28;20206;-44
2022/02/12 09:58:14;;;;;;;6.70;3.47;;;2.40;99.90;;;;;;5024913;28;20037;-43
2022/02/12 10:00:40;;;;;;;8.05;3.65;;;2.50;99.90;;;;;;5019284;28;20034;-43
2022/02/12 10:03:06;;;;;;;7.18;3.55;;;2.50;99.90;;;;;;5024913;28;20025;-43
2022/02/12 10:05:31;;;;;;;9.23;3.75;;;2.60;99.90;;;;;;5021573;28;20100;-43
2022/02/12 10:08:00;;;;;;;11.13;4.43;;;2.70;99.90;;;;;;5022908;28;20036;-43
2022/02/12 10:10:28;;;;;;;9.57;4.25;;;2.70;99.90;;;;;;5024001;28;20380;-44
2022/02/12 10:13:09;;;;;;;8.65;3.70;;;2.80;99.90;;;;;;5022663;28;20041;-43
2022/02/12 10:15:35;;;;;;;8.52;3.50;;;2.90;99.90;;;;;;5020102;28;20033;-43
2022/02/12 10:18:01;;;;;;;9.60;3.40;;;2.90;99.90;;;;;;5023993;28;20078;-43
2022/02/12 10:20:30;;;;;;;7.80;3.35;;;3.00;99.90;;;;;;5024207;28;20035;-42
2022/02/12 10:23:15;;;;;;;11.20;4.60;;;3.00;99.90;;;;;;5024414;28;20036;-44
2022/02/12 10:25:47;;;;;;;6.72;3.30;;;3.10;99.90;;;;;;5024577;28;20067;-44
2022/02/12 10:28:15;;;;;;;9.40;3.50;;;3.20;99.90;;;;;;5018479;28;20033;-43
2022/02/12 10:30:44;;;;;;;8.57;3.55;;;3.30;99.90;;;;;;5023823;28;20021;-43
2022/02/12 10:33:10;;;;;;;10.30;4.05;;;3.30;99.90;;;;;;5019535;28;20033;-43
2022/02/12 10:35:37;;;;;;;5.97;3.15;;;3.40;99.90;;;;;;5022902;28;20021;-42
2022/02/12 10:38:07;;;;;;;10.45;3.40;;;3.40;99.90;;;;;;5020343;28;20021;-43
2022/02/12 10:40:34;;;;;;;7.93;3.15;;;3.50;99.90;;;;;;5024230;28;20484;-44
2022/02/12 10:43:01;;;;;;;9.35;3.70;;;3.50;99.90;;;;;;5021587;28;20057;-43
2022/02/12 10:45:28;;;;;;;7.45;3.78;;;3.60;99.90;;;;;;5023595;28;20424;-43
2022/02/12 10:47:57;;;;;;;14.07;4.00;;;3.70;99.90;;;;;;5028289;28;20039;-42
2022/02/12 10:50:23;;;;;;;9.68;3.50;;;3.70;99.90;;;;;;5026049;28;20638;-43
2022/02/12 10:52:58;;;;;;;7.95;3.60;;;3.80;99.90;;;;;;5025565;28;20034;-43
2022/02/12 10:55:31;;;;;;;8.02;3.35;;;3.80;99.90;;;;;;5027115;28;20022;-43
2022/02/12 10:58:23;;;;;;;;;;;3.90;99.90;;;;;;5027073;28;20036;-42
2022/02/12 11:00:49;;;;;;;7.78;3.17;;;4.00;99.90;;;;;;5022448;28;19909;-44
2022/02/12 11:03:16;;;;;;;11.27;3.35;;;4.00;99.90;;;;;;5020192;28;20017;-43
2022/02/12 11:05:48;;;;;;;5.65;2.83;;;4.00;99.90;;;;;;5025910;28;20111;-44
2022/02/12 11:08:14;;;;;;;5.65;2.65;;;4.00;99.90;;;;;;5020768;28;20072;-43
2022/02/12 11:10:42;;;;;;;8.80;4.00;;;4.00;99.90;;;;;;5026103;28;20038;-43
2022/02/12 11:13:09;;;;;;;7.85;4.13;;;4.10;99.90;;;;;;5021734;28;20049;-43
2022/02/12 11:15:36;;;;;;;5.80;2.85;;;4.10;99.90;;;;;;5027990;28;20027;-43
2022/02/12 11:18:06;;;;;;;6.80;2.85;;;4.20;99.90;;;;;;5023000;28;20022;-44
2022/02/12 11:20:33;;;;;;;7.57;3.60;;;4.20;99.90;;;;;;5027585;28;20037;-44
2022/02/12 11:23:18;;;;;;;8.55;3.28;;;4.30;99.90;;;;;;5026860;28;20037;-43
2022/02/12 11:25:44;;;;;;;6.38;3.25;;;4.30;99.90;;;;;;5023711;28;20032;-43
2022/02/12 11:28:11;;;;;;;9.40;3.30;;;4.40;99.90;;;;;;5026388;28;20099;-43
2022/02/12 11:30:39;;;;;;;8.60;3.30;;;4.40;99.90;;;;;;5022873;28;20028;-44
2022/02/12 11:33:21;;;;;;;7.85;2.75;;;4.40;99.90;;;;;;5027046;28;20044;-42
2022/02/12 11:36:11;;;;;;;7.75;2.92;;;4.50;99.90;;;;;;5004778;28;20041;-43
2022/02/12 11:38:39;;;;;;;9.85;3.65;;;4.60;99.90;;;;;;5024920;28;20047;-43
2022/02/12 11:41:20;;;;;;;9.07;3.17;;;4.70;99.90;;;;;;5026113;28;20420;-43
2022/02/12 11:43:46;;;;;;;8.10;2.80;;;4.80;99.90;;;;;;5025499;28;20370;-43
2022/02/12 11:46:12;;;;;;;7.88;3.00;;;4.80;99.90;;;;;;5010529;28;20022;-43
2022/02/12 11:48:38;;;;;;;6.43;2.42;;;4.90;99.90;;;;;;5024065;28;20493;-42
2022/02/12 11:51:09;;;;;;;7.40;3.00;;;4.90;99.90;;;;;;5027563;28;20786;-43
2022/02/12 11:53:46;;;;;;;5.95;2.45;;;4.90;99.90;;;;;;5026631;28;20481;-43
2022/02/12 11:56:18;;;;;;;6.68;3.42;;;5.00;99.90;;;;;;5020422;28;20026;-43
2022/02/12 11:58:43;;;;;;;7.38;3.10;;;5.00;99.90;;;;;;5028308;28;20033;-43
2022/02/12 12:01:32;;;;;;;6.38;2.60;;;5.10;99.90;;;;;;5021492;28;20047;-43
2022/02/12 12:07:09;;;;;;;7.60;3.33;;;5.20;99.90;;;;;;5023879;28;20033;-43
2022/02/12 12:09:58;;;;;;;5.00;2.80;;;5.30;99.90;;;;;;5027200;28;20029;-42
2022/02/12 12:12:24;;;;;;;6.13;3.30;;;5.30;99.90;;;;;;5018832;28;20052;-43
2022/02/12 12:15:14;;;;;;;6.13;3.05;;;5.40;99.90;;;;;;5027219;28;20029;-44
2022/02/12 12:17:41;;;;;;;6.95;3.10;;;5.40;99.90;;;;;;5027711;28;20108;-43
2022/02/12 12:20:07;;;;;;;6.55;3.03;;;5.50;99.90;;;;;;5022639;28;20564;-43
2022/02/12 12:22:32;;;;;;;7.82;3.00;;;5.60;99.90;;;;;;5026721;28;20539;-43
2022/02/12 12:24:59;;;;;;;10.13;3.08;;;5.70;99.90;;;;;;5027628;28;20029;-42
2022/02/12 12:27:24;;;;;;;8.27;2.75;;;5.70;99.90;;;;;;5027468;28;20049;-44
2022/02/12 12:32:34;;;;;;;6.07;3.38;;;5.80;99.90;;;;;;5021607;28;20048;-44
2022/02/12 12:35:05;;;;;;;8.25;3.38;;;5.80;99.90;;;;;;5027037;28;20022;-42
2022/02/12 12:37:51;;;;;;;6.78;3.40;;;5.90;99.90;;;;;;5027312;28;20048;-43
2022/02/12 12:40:24;;;;;;;7.05;3.20;;;5.90;99.90;;;;;;5021905;28;20488;-44
2022/02/12 12:43:01;;;;;;;7.85;3.65;;;5.90;99.90;;;;;;5026954;28;20032;-43
2022/02/12 12:45:27;;;;;;;8.45;3.33;;;6.00;99.90;;;;;;5026204;28;20457;-43
2022/02/12 12:47:54;;;;;;;5.95;3.03;;;6.10;99.90;;;;;;5027271;28;20029;-43
2022/02/12 12:50:20;;;;;;;8.63;3.58;;;6.10;99.90;;;;;;5026272;28;20057;-43
2022/02/12 12:52:46;;;;;;;10.20;5.43;;;6.20;99.90;;;;;;5027351;28;20124;-43
2022/02/12 12:55:17;;;;;;;7.32;2.97;;;6.20;99.90;;;;;;5026763;28;20473;-42
2022/02/12 12:57:44;;;;;;;7.10;2.72;;;6.20;99.90;;;;;;5026753;28;20025;-44
2022/02/12 13:00:11;;;;;;;6.78;3.30;;;6.30;99.90;;;;;;5026536;28;20064;-43
2022/02/12 13:02:46;;;;;;;6.65;3.03;;;6.30;99.90;;;;;;5027255;28;20036;-44